Terminal Aerodrome Forecast
Issued by NWS

Home | Current Version | Previous Version | Text Only | Print | Product List | Glossary On
Versions: 1 2 3 4 5 6 7 8 9 10 11 12 13 14 15 16 17 18 19 20 21 22 23 24 25 26 27 28 29 30 31 32 33 34 35 36 37
000
FTUS45 KBOU 190848 AAC
TAFBJC
TAF AMD
KBJC 190848Z 1909/2006 35011KT P6SM BKN025 OVC045
     FM191200 35013KT 5SM -SHRA BR BKN005 OVC010
     FM191500 35014KT 2SM -SHRA BR BKN004 OVC008
     FM192000 36011KT P6SM SCT010 OVC015
     FM200200 34008KT P6SM SCT008 OVC012=

USA.gov is the U.S. government's official web portal to all federal, state and local government web resources and services.